sensor_id;sensor_type;location;lat;lon;timestamp;temperature;humidity
22968;DHT22;11650;48.106;-1.696;2024-03-08T00:01:55;8.80;99.90
22968;DHT22;11650;48.106;-1.696;2024-03-08T00:04:21;8.80;99.90
22968;DHT22;11650;48.106;-1.696;2024-03-08T00:06:47;8.80;99.90
22968;DHT22;11650;48.106;-1.696;2024-03-08T00:09:13;8.70;99.90
22968;DHT22;11650;48.106;-1.696;2024-03-08T00:11:39;8.70;99.90
22968;DHT22;11650;48.106;-1.696;2024-03-08T00:14:05;8.70;99.90
22968;DHT22;11650;48.106;-1.696;2024-03-08T00:16:33;8.70;99.90
22968;DHT22;11650;48.106;-1.696;2024-03-08T00:18:59;8.70;99.90
22968;DHT22;11650;48.106;-1.696;2024-03-08T00:21:25;8.70;99.90
22968;DHT22;11650;48.106;-1.696;2024-03-08T00:23:52;8.70;99.90
22968;DHT22;11650;48.106;-1.696;2024-03-08T00:26:20;8.60;99.90
22968;DHT22;11650;48.106;-1.696;2024-03-08T00:28:48;8.70;99.90
22968;DHT22;11650;48.106;-1.696;2024-03-08T00:31:14;8.70;99.90
22968;DHT22;11650;48.106;-1.696;2024-03-08T00:33:42;8.70;99.90
22968;DHT22;11650;48.106;-1.696;2024-03-08T00:36:08;8.60;99.90
22968;DHT22;11650;48.106;-1.696;2024-03-08T00:38:33;8.70;99.90
22968;DHT22;11650;48.106;-1.696;2024-03-08T00:40:59;8.60;99.90
22968;DHT22;11650;48.106;-1.696;2024-03-08T00:43:25;8.60;99.90
22968;DHT22;11650;48.106;-1.696;2024-03-08T00:45:51;8.50;99.90
22968;DHT22;11650;48.106;-1.696;2024-03-08T00:48:17;8.50;99.90
22968;DHT22;11650;48.106;-1.696;2024-03-08T00:50:43;8.50;99.90
22968;DHT22;11650;48.106;-1.696;2024-03-08T00:53:11;8.50;99.90
22968;DHT22;11650;48.106;-1.696;2024-03-08T00:55:37;8.50;99.90
22968;DHT22;11650;48.106;-1.696;2024-03-08T00:58:04;8.40;99.90
22968;DHT22;11650;48.106;-1.696;2024-03-08T01:00:29;8.40;99.90
22968;DHT22;11650;48.106;-1.696;2024-03-08T01:02:55;8.40;99.90
22968;DHT22;11650;48.106;-1.696;2024-03-08T01:05:21;8.40;99.90
22968;DHT22;11650;48.106;-1.696;2024-03-08T01:07:49;8.40;99.90
22968;DHT22;11650;48.106;-1.696;2024-03-08T01:10:15;8.40;99.90
22968;DHT22;11650;48.106;-1.696;2024-03-08T01:12:40;8.40;99.90
22968;DHT22;11650;48.106;-1.696;2024-03-08T01:15:09;8.40;99.90
22968;DHT22;11650;48.106;-1.696;2024-03-08T01:17:36;8.40;99.90
22968;DHT22;11650;48.106;-1.696;2024-03-08T01:20:02;8.30;99.90
22968;DHT22;11650;48.106;-1.696;2024-03-08T01:22:28;8.30;99.90
22968;DHT22;11650;48.106;-1.696;2024-03-08T01:24:55;8.30;99.90
22968;DHT22;11650;48.106;-1.696;2024-03-08T01:27:21;8.30;99.90
22968;DHT22;11650;48.106;-1.696;2024-03-08T01:29:47;8.30;99.90
22968;DHT22;11650;48.106;-1.696;2024-03-08T01:32:13;8.30;99.90
22968;DHT22;11650;48.106;-1.696;2024-03-08T01:34:40;8.30;99.90
22968;DHT22;11650;48.106;-1.696;2024-03-08T01:37:05;8.30;99.90
22968;DHT22;11650;48.106;-1.696;2024-03-08T01:39:32;8.20;99.90
22968;DHT22;11650;48.106;-1.696;2024-03-08T01:41:58;8.20;99.90
22968;DHT22;11650;48.106;-1.696;2024-03-08T01:44:23;8.30;99.90
22968;DHT22;11650;48.106;-1.696;2024-03-08T01:46:50;8.30;99.90
22968;DHT22;11650;48.106;-1.696;2024-03-08T01:49:18;8.20;99.90
22968;DHT22;11650;48.106;-1.696;2024-03-08T01:51:46;8.20;99.90
22968;DHT22;11650;48.106;-1.696;2024-03-08T01:54:12;8.20;99.90
22968;DHT22;11650;48.106;-1.696;2024-03-08T01:56:39;8.20;99.90
22968;DHT22;11650;48.106;-1.696;2024-03-08T01:59:06;8.30;99.90
22968;DHT22;11650;48.106;-1.696;2024-03-08T02:01:33;8.20;99.90
22968;DHT22;11650;48.106;-1.696;2024-03-08T02:03:59;8.20;99.90
22968;DHT22;11650;48.106;-1.696;2024-03-08T02:06:25;8.20;99.90
22968;DHT22;11650;48.106;-1.696;2024-03-08T02:08:51;8.10;99.90
22968;DHT22;11650;48.106;-1.696;2024-03-08T02:11:17;8.10;99.90
22968;DHT22;11650;48.106;-1.696;2024-03-08T02:13:44;8.10;99.90
22968;DHT22;11650;48.106;-1.696;2024-03-08T02:16:10;8.10;99.90
22968;DHT22;11650;48.106;-1.696;2024-03-08T02:18:36;8.10;99.90
22968;DHT22;11650;48.106;-1.696;2024-03-08T02:21:03;8.10;99.90
22968;DHT22;11650;48.106;-1.696;2024-03-08T02:23:29;8.10;99.90
22968;DHT22;11650;48.106;-1.696;2024-03-08T02:25:56;8.00;99.90
22968;DHT22;11650;48.106;-1.696;2024-03-08T02:28:23;8.10;99.90
22968;DHT22;11650;48.106;-1.696;2024-03-08T02:30:49;8.10;99.90
22968;DHT22;11650;48.106;-1.696;2024-03-08T02:33:17;8.10;99.90
22968;DHT22;11650;48.106;-1.696;2024-03-08T02:35:44;8.00;99.90
22968;DHT22;11650;48.106;-1.696;2024-03-08T02:38:17;8.10;99.90
22968;DHT22;11650;48.106;-1.696;2024-03-08T02:40:47;8.10;99.90
22968;DHT22;11650;48.106;-1.696;2024-03-08T02:43:14;8.00;99.90
22968;DHT22;11650;48.106;-1.696;2024-03-08T02:45:41;8.00;99.90
22968;DHT22;11650;48.106;-1.696;2024-03-08T02:48:11;7.90;99.90
22968;DHT22;11650;48.106;-1.696;2024-03-08T02:50:37;7.90;99.90
22968;DHT22;11650;48.106;-1.696;2024-03-08T02:53:03;7.90;99.90
22968;DHT22;11650;48.106;-1.696;2024-03-08T02:55:29;7.80;99.90
22968;DHT22;11650;48.106;-1.696;2024-03-08T02:57:55;7.90;99.90
22968;DHT22;11650;48.106;-1.696;2024-03-08T03:00:22;7.80;99.90
22968;DHT22;11650;48.106;-1.696;2024-03-08T03:02:49;7.80;99.90
22968;DHT22;11650;48.106;-1.696;2024-03-08T03:05:19;7.80;99.90
22968;DHT22;11650;48.106;-1.696;2024-03-08T03:07:45;7.80;99.90
22968;DHT22;11650;48.106;-1.696;2024-03-08T03:10:11;7.70;99.90
22968;DHT22;11650;48.106;-1.696;2024-03-08T03:12:37;7.70;99.90
22968;DHT22;11650;48.106;-1.696;2024-03-08T03:15:04;7.70;99.90
22968;DHT22;11650;48.106;-1.696;2024-03-08T03:17:30;7.70;99.90
22968;DHT22;11650;48.106;-1.696;2024-03-08T03:19:55;7.70;99.90
22968;DHT22;11650;48.106;-1.696;2024-03-08T03:22:21;7.70;99.90
22968;DHT22;11650;48.106;-1.696;2024-03-08T03:24:47;7.70;99.90
22968;DHT22;11650;48.106;-1.696;2024-03-08T03:27:13;7.70;99.90
22968;DHT22;11650;48.106;-1.696;2024-03-08T03:29:41;7.70;99.90
22968;DHT22;11650;48.106;-1.696;2024-03-08T03:32:14;7.60;99.90
22968;DHT22;11650;48.106;-1.696;2024-03-08T03:34:41;7.70;99.90
22968;DHT22;11650;48.106;-1.696;2024-03-08T03:37:09;7.70;99.90
22968;DHT22;11650;48.106;-1.696;2024-03-08T03:39:38;7.70;99.90
22968;DHT22;11650;48.106;-1.696;2024-03-08T03:42:19;7.70;99.90
22968;DHT22;11650;48.106;-1.696;2024-03-08T03:44:48;7.60;99.90
22968;DHT22;11650;48.106;-1.696;2024-03-08T03:47:14;7.70;99.90
22968;DHT22;11650;48.106;-1.696;2024-03-08T03:49:43;7.60;99.90
22968;DHT22;11650;48.106;-1.696;2024-03-08T03:52:10;7.60;99.90
22968;DHT22;11650;48.106;-1.696;2024-03-08T03:54:36;7.60;99.90
22968;DHT22;11650;48.106;-1.696;2024-03-08T03:57:01;7.60;99.90
22968;DHT22;11650;48.106;-1.696;2024-03-08T03:59:28;7.50;99.90
22968;DHT22;11650;48.106;-1.696;2024-03-08T04:01:54;7.50;99.90
22968;DHT22;11650;48.106;-1.696;2024-03-08T04:04:20;7.50;99.90
22968;DHT22;11650;48.106;-1.696;2024-03-08T04:06:46;7.50;99.90
22968;DHT22;11650;48.106;-1.696;2024-03-08T04:09:11;7.40;99.90
22968;DHT22;11650;48.106;-1.696;2024-03-08T04:11:38;7.50;99.90
22968;DHT22;11650;48.106;-1.696;2024-03-08T04:14:04;7.50;99.90
22968;DHT22;11650;48.106;-1.696;2024-03-08T04:16:31;7.50;99.90
22968;DHT22;11650;48.106;-1.696;2024-03-08T04:18:57;7.50;99.90
22968;DHT22;11650;48.106;-1.696;2024-03-08T04:21:23;7.50;99.90
22968;DHT22;11650;48.106;-1.696;2024-03-08T04:23:48;7.40;99.90
22968;DHT22;11650;48.106;-1.696;2024-03-08T04:26:14;7.40;99.90
22968;DHT22;11650;48.106;-1.696;2024-03-08T04:28:40;7.40;99.90
22968;DHT22;11650;48.106;-1.696;2024-03-08T04:31:05;7.40;99.90
22968;DHT22;11650;48.106;-1.696;2024-03-08T04:33:32;7.40;99.90
22968;DHT22;11650;48.106;-1.696;2024-03-08T04:35:58;7.40;99.90
22968;DHT22;11650;48.106;-1.696;2024-03-08T04:38:23;7.40;99.90
22968;DHT22;11650;48.106;-1.696;2024-03-08T04:40:50;7.40;99.90
22968;DHT22;11650;48.106;-1.696;2024-03-08T04:43:16;7.40;99.90
22968;DHT22;11650;48.106;-1.696;2024-03-08T04:45:44;7.40;99.90
22968;DHT22;11650;48.106;-1.696;2024-03-08T04:48:09;7.40;99.90
22968;DHT22;11650;48.106;-1.696;2024-03-08T04:50:37;7.40;99.90
22968;DHT22;11650;48.106;-1.696;2024-03-08T04:53:03;7.40;99.90
22968;DHT22;11650;48.106;-1.696;2024-03-08T04:55:34;7.40;99.90
22968;DHT22;11650;48.106;-1.696;2024-03-08T04:57:59;7.40;99.90
22968;DHT22;11650;48.106;-1.696;2024-03-08T05:00:25;7.30;99.90
22968;DHT22;11650;48.106;-1.696;2024-03-08T05:02:51;7.30;99.90
22968;DHT22;11650;48.106;-1.696;2024-03-08T05:05:18;7.30;99.90
22968;DHT22;11650;48.106;-1.696;2024-03-08T05:07:44;7.30;99.90
22968;DHT22;11650;48.106;-1.696;2024-03-08T05:10:11;7.30;99.90
22968;DHT22;11650;48.106;-1.696;2024-03-08T05:12:37;7.30;99.90
22968;DHT22;11650;48.106;-1.696;2024-03-08T05:15:06;7.20;99.90
22968;DHT22;11650;48.106;-1.696;2024-03-08T05:17:32;7.30;99.90
22968;DHT22;11650;48.106;-1.696;2024-03-08T05:19:58;7.30;99.90
22968;DHT22;11650;48.106;-1.696;2024-03-08T05:22:23;7.30;99.90
22968;DHT22;11650;48.106;-1.696;2024-03-08T05:24:49;7.30;99.90
22968;DHT22;11650;48.106;-1.696;2024-03-08T05:27:15;7.20;99.90
22968;DHT22;11650;48.106;-1.696;2024-03-08T05:29:41;7.20;99.90
22968;DHT22;11650;48.106;-1.696;2024-03-08T05:32:07;7.20;99.90
22968;DHT22;11650;48.106;-1.696;2024-03-08T05:34:33;7.10;99.90
22968;DHT22;11650;48.106;-1.696;2024-03-08T05:36:58;7.10;99.90
22968;DHT22;11650;48.106;-1.696;2024-03-08T05:39:25;7.10;99.90
22968;DHT22;11650;48.106;-1.696;2024-03-08T05:41:51;7.10;99.90
22968;DHT22;11650;48.106;-1.696;2024-03-08T05:44:16;7.10;99.90
22968;DHT22;11650;48.106;-1.696;2024-03-08T05:46:42;7.10;99.90
22968;DHT22;11650;48.106;-1.696;2024-03-08T05:49:08;7.10;99.90
22968;DHT22;11650;48.106;-1.696;2024-03-08T05:51:37;7.10;99.90
22968;DHT22;11650;48.106;-1.696;2024-03-08T05:54:05;7.00;99.90
22968;DHT22;11650;48.106;-1.696;2024-03-08T05:56:32;7.10;99.90
22968;DHT22;11650;48.106;-1.696;2024-03-08T05:58:58;7.00;99.90
22968;DHT22;11650;48.106;-1.696;2024-03-08T06:01:24;7.00;99.90
22968;DHT22;11650;48.106;-1.696;2024-03-08T06:03:50;7.00;99.90
22968;DHT22;11650;48.106;-1.696;2024-03-08T06:06:16;7.10;99.90
22968;DHT22;11650;48.106;-1.696;2024-03-08T06:08:43;7.10;99.90
22968;DHT22;11650;48.106;-1.696;2024-03-08T06:11:09;7.10;99.90
22968;DHT22;11650;48.106;-1.696;2024-03-08T06:13:35;7.10;99.90
22968;DHT22;11650;48.106;-1.696;2024-03-08T06:16:02;7.10;99.90
22968;DHT22;11650;48.106;-1.696;2024-03-08T06:18:31;7.10;99.90
22968;DHT22;11650;48.106;-1.696;2024-03-08T06:20:56;7.00;99.90
22968;DHT22;11650;48.106;-1.696;2024-03-08T06:23:22;7.00;99.90
22968;DHT22;11650;48.106;-1.696;2024-03-08T06:25:48;7.00;99.90
22968;DHT22;11650;48.106;-1.696;2024-03-08T06:28:14;7.00;99.90
22968;DHT22;11650;48.106;-1.696;2024-03-08T06:30:40;7.00;99.90
22968;DHT22;11650;48.106;-1.696;2024-03-08T06:33:06;7.00;99.90
22968;DHT22;11650;48.106;-1.696;2024-03-08T06:35:32;7.00;99.90
22968;DHT22;11650;48.106;-1.696;2024-03-08T06:38:01;7.00;99.90
22968;DHT22;11650;48.106;-1.696;2024-03-08T06:40:26;7.00;99.90
22968;DHT22;11650;48.106;-1.696;2024-03-08T06:42:52;7.00;99.90
22968;DHT22;11650;48.106;-1.696;2024-03-08T06:45:18;6.90;99.90
22968;DHT22;11650;48.106;-1.696;2024-03-08T06:47:46;6.90;99.90
22968;DHT22;11650;48.106;-1.696;2024-03-08T06:50:12;6.90;99.90
22968;DHT22;11650;48.106;-1.696;2024-03-08T06:52:39;6.90;99.90
22968;DHT22;11650;48.106;-1.696;2024-03-08T06:55:05;7.00;99.90
22968;DHT22;11650;48.106;-1.696;2024-03-08T06:57:31;6.90;99.90
22968;DHT22;11650;48.106;-1.696;2024-03-08T06:59:57;6.90;99.90
22968;DHT22;11650;48.106;-1.696;2024-03-08T07:02:23;6.90;99.90
22968;DHT22;11650;48.106;-1.696;2024-03-08T07:04:52;6.90;99.90
22968;DHT22;11650;48.106;-1.696;2024-03-08T07:07:18;6.90;99.90
22968;DHT22;11650;48.106;-1.696;2024-03-08T07:09:46;6.90;99.90
22968;DHT22;11650;48.106;-1.696;2024-03-08T07:12:11;6.90;99.90
22968;DHT22;11650;48.106;-1.696;2024-03-08T07:14:39;7.00;99.90
22968;DHT22;11650;48.106;-1.696;2024-03-08T07:17:07;7.00;99.90
22968;DHT22;11650;48.106;-1.696;2024-03-08T07:19:34;7.00;99.90
22968;DHT22;11650;48.106;-1.696;2024-03-08T07:22:00;7.00;99.90
22968;DHT22;11650;48.106;-1.696;2024-03-08T07:24:26;7.00;99.90
22968;DHT22;11650;48.106;-1.696;2024-03-08T07:27:10;7.10;99.90
22968;DHT22;11650;48.106;-1.696;2024-03-08T07:29:35;7.10;99.90
22968;DHT22;11650;48.106;-1.696;2024-03-08T07:32:01;7.10;99.90
22968;DHT22;11650;48.106;-1.696;2024-03-08T07:34:45;7.10;99.90
22968;DHT22;11650;48.106;-1.696;2024-03-08T07:37:11;7.10;99.90
22968;DHT22;11650;48.106;-1.696;2024-03-08T07:39:37;7.10;99.90
22968;DHT22;11650;48.106;-1.696;2024-03-08T07:42:04;7.10;99.90
22968;DHT22;11650;48.106;-1.696;2024-03-08T07:44:30;7.20;99.90
22968;DHT22;11650;48.106;-1.696;2024-03-08T07:46:57;7.30;99.90
22968;DHT22;11650;48.106;-1.696;2024-03-08T07:49:22;7.30;99.90
22968;DHT22;11650;48.106;-1.696;2024-03-08T07:51:48;7.40;99.90
22968;DHT22;11650;48.106;-1.696;2024-03-08T07:54:14;7.30;99.90
22968;DHT22;11650;48.106;-1.696;2024-03-08T07:56:40;7.50;99.90
22968;DHT22;11650;48.106;-1.696;2024-03-08T07:59:06;7.50;99.90
22968;DHT22;11650;48.106;-1.696;2024-03-08T08:01:32;7.50;99.90
22968;DHT22;11650;48.106;-1.696;2024-03-08T08:03:59;7.60;99.90
22968;DHT22;11650;48.106;-1.696;2024-03-08T08:06:27;7.70;99.90
22968;DHT22;11650;48.106;-1.696;2024-03-08T08:08:52;7.70;99.90
22968;DHT22;11650;48.106;-1.696;2024-03-08T08:11:19;7.70;99.90
22968;DHT22;11650;48.106;-1.696;2024-03-08T08:13:45;7.80;99.90
22968;DHT22;11650;48.106;-1.696;2024-03-08T08:16:11;7.90;99.90
22968;DHT22;11650;48.106;-1.696;2024-03-08T08:18:38;7.90;99.90
22968;DHT22;11650;48.106;-1.696;2024-03-08T08:21:05;8.00;99.90
22968;DHT22;11650;48.106;-1.696;2024-03-08T08:23:33;8.10;99.90
22968;DHT22;11650;48.106;-1.696;2024-03-08T08:25:59;8.10;99.90
22968;DHT22;11650;48.106;-1.696;2024-03-08T08:28:26;8.20;99.90
22968;DHT22;11650;48.106;-1.696;2024-03-08T08:30:52;8.30;99.90
22968;DHT22;11650;48.106;-1.696;2024-03-08T08:33:18;8.40;99.90
22968;DHT22;11650;48.106;-1.696;2024-03-08T08:35:43;8.50;99.90
22968;DHT22;11650;48.106;-1.696;2024-03-08T08:38:09;8.50;99.90
22968;DHT22;11650;48.106;-1.696;2024-03-08T08:40:35;8.50;99.90
22968;DHT22;11650;48.106;-1.696;2024-03-08T08:43:02;8.60;99.90
22968;DHT22;11650;48.106;-1.696;2024-03-08T08:45:30;8.60;99.90
22968;DHT22;11650;48.106;-1.696;2024-03-08T08:47:56;8.60;99.90
22968;DHT22;11650;48.106;-1.696;2024-03-08T08:50:22;8.60;99.90
22968;DHT22;11650;48.106;-1.696;2024-03-08T08:52:52;8.60;99.90
22968;DHT22;11650;48.106;-1.696;2024-03-08T08:55:18;8.70;99.90
22968;DHT22;11650;48.106;-1.696;2024-03-08T08:57:47;8.70;99.90
22968;DHT22;11650;48.106;-1.696;2024-03-08T09:00:20;8.60;99.90
22968;DHT22;11650;48.106;-1.696;2024-03-08T09:02:47;8.80;99.90
22968;DHT22;11650;48.106;-1.696;2024-03-08T09:05:14;8.90;99.90
22968;DHT22;11650;48.106;-1.696;2024-03-08T09:07:43;9.00;99.90
22968;DHT22;11650;48.106;-1.696;2024-03-08T09:10:10;9.00;99.90
22968;DHT22;11650;48.106;-1.696;2024-03-08T09:12:40;9.10;99.90
22968;DHT22;11650;48.106;-1.696;2024-03-08T09:15:06;9.20;99.90
22968;DHT22;11650;48.106;-1.696;2024-03-08T09:17:39;9.10;99.90
22968;DHT22;11650;48.106;-1.696;2024-03-08T09:20:09;9.30;99.90
22968;DHT22;11650;48.106;-1.696;2024-03-08T09:22:36;9.40;99.90
22968;DHT22;11650;48.106;-1.696;2024-03-08T09:25:01;9.60;99.90
22968;DHT22;11650;48.106;-1.696;2024-03-08T09:27:30;9.60;99.90
22968;DHT22;11650;48.106;-1.696;2024-03-08T09:29:56;9.60;99.90
22968;DHT22;11650;48.106;-1.696;2024-03-08T09:32:21;9.50;99.90
22968;DHT22;11650;48.106;-1.696;2024-03-08T09:34:48;9.50;99.90
22968;DHT22;11650;48.106;-1.696;2024-03-08T09:37:14;9.60;99.90
22968;DHT22;11650;48.106;-1.696;2024-03-08T09:39:39;9.60;99.90
22968;DHT22;11650;48.106;-1.696;2024-03-08T09:42:05;9.70;99.90
22968;DHT22;11650;48.106;-1.696;2024-03-08T09:44:31;9.80;99.90
22968;DHT22;11650;48.106;-1.696;2024-03-08T09:46:58;9.90;99.90
22968;DHT22;11650;48.106;-1.696;2024-03-08T09:49:24;9.90;99.90
22968;DHT22;11650;48.106;-1.696;2024-03-08T09:51:50;10.00;99.90
22968;DHT22;11650;48.106;-1.696;2024-03-08T09:54:17;10.00;99.90
22968;DHT22;11650;48.106;-1.696;2024-03-08T09:56:43;9.90;99.90
22968;DHT22;11650;48.106;-1.696;2024-03-08T09:59:10;10.20;99.90
22968;DHT22;11650;48.106;-1.696;2024-03-08T10:01:48;10.10;99.90
22968;DHT22;11650;48.106;-1.696;2024-03-08T10:04:13;10.20;99.90
22968;DHT22;11650;48.106;-1.696;2024-03-08T10:06:42;10.00;99.90
22968;DHT22;11650;48.106;-1.696;2024-03-08T10:09:09;10.30;99.90
22968;DHT22;11650;48.106;-1.696;2024-03-08T10:11:35;10.50;99.90
22968;DHT22;11650;48.106;-1.696;2024-03-08T10:14:01;10.50;99.90
22968;DHT22;11650;48.106;-1.696;2024-03-08T10:16:27;10.60;99.90
22968;DHT22;11650;48.106;-1.696;2024-03-08T10:18:55;10.60;99.90
22968;DHT22;11650;48.106;-1.696;2024-03-08T10:21:21;10.60;99.90
22968;DHT22;11650;48.106;-1.696;2024-03-08T10:23:48;10.80;99.90
22968;DHT22;11650;48.106;-1.696;2024-03-08T10:26:15;10.90;99.90
22968;DHT22;11650;48.106;-1.696;2024-03-08T10:28:45;11.00;99.90
22968;DHT22;11650;48.106;-1.696;2024-03-08T10:31:13;11.20;99.90
22968;DHT22;11650;48.106;-1.696;2024-03-08T10:33:40;11.10;99.90
22968;DHT22;11650;48.106;-1.696;2024-03-08T10:36:10;11.40;99.90
22968;DHT22;11650;48.106;-1.696;2024-03-08T10:38:40;11.50;99.90
22968;DHT22;11650;48.106;-1.696;2024-03-08T10:41:07;11.90;99.90
22968;DHT22;11650;48.106;-1.696;2024-03-08T10:48:55;11.60;99.90
22968;DHT22;11650;48.106;-1.696;2024-03-08T10:51:24;11.70;99.90
22968;DHT22;11650;48.106;-1.696;2024-03-08T10:53:52;11.50;99.90
22968;DHT22;11650;48.106;-1.696;2024-03-08T10:56:19;12.10;99.90
22968;DHT22;11650;48.106;-1.696;2024-03-08T10:58:46;12.10;99.90
22968;DHT22;11650;48.106;-1.696;2024-03-08T11:01:12;12.40;99.90
22968;DHT22;11650;48.106;-1.696;2024-03-08T11:06:23;12.10;99.90
22968;DHT22;11650;48.106;-1.696;2024-03-08T11:08:55;12.40;99.90
22968;DHT22;11650;48.106;-1.696;2024-03-08T11:11:31;12.30;99.90
22968;DHT22;11650;48.106;-1.696;2024-03-08T11:13:58;12.20;99.90
22968;DHT22;11650;48.106;-1.696;2024-03-08T11:19:05;12.30;99.90
22968;DHT22;11650;48.106;-1.696;2024-03-08T11:21:32;12.20;99.90
22968;DHT22;11650;48.106;-1.696;2024-03-08T11:24:06;12.20;99.90
22968;DHT22;11650;48.106;-1.696;2024-03-08T11:26:33;12.20;99.90
22968;DHT22;11650;48.106;-1.696;2024-03-08T11:32:09;12.50;99.90
22968;DHT22;11650;48.106;-1.696;2024-03-08T11:34:36;12.60;99.90
22968;DHT22;11650;48.106;-1.696;2024-03-08T11:37:05;12.60;99.90
22968;DHT22;11650;48.106;-1.696;2024-03-08T11:39:35;12.50;99.90
22968;DHT22;11650;48.106;-1.696;2024-03-08T11:42:02;12.60;99.90
22968;DHT22;11650;48.106;-1.696;2024-03-08T11:44:28;12.80;99.90
22968;DHT22;11650;48.106;-1.696;2024-03-08T11:46:54;12.80;99.90
22968;DHT22;11650;48.106;-1.696;2024-03-08T11:49:20;13.00;99.90
22968;DHT22;11650;48.106;-1.696;2024-03-08T11:51:46;12.70;99.90
22968;DHT22;11650;48.106;-1.696;2024-03-08T11:54:13;12.90;99.90
22968;DHT22;11650;48.106;-1.696;2024-03-08T11:56:39;12.70;99.90
22968;DHT22;11650;48.106;-1.696;2024-03-08T11:59:11;12.50;99.90
22968;DHT22;11650;48.106;-1.696;2024-03-08T12:01:38;12.60;99.90
22968;DHT22;11650;48.106;-1.696;2024-03-08T12:04:04;12.50;99.90
22968;DHT22;11650;48.106;-1.696;2024-03-08T12:06:39;12.60;99.90
22968;DHT22;11650;48.106;-1.696;2024-03-08T12:09:08;12.50;99.90
22968;DHT22;11650;48.106;-1.696;2024-03-08T12:11:36;12.40;99.90
22968;DHT22;11650;48.106;-1.696;2024-03-08T12:14:02;12.30;99.90
22968;DHT22;11650;48.106;-1.696;2024-03-08T12:16:28;12.50;99.90
22968;DHT22;11650;48.106;-1.696;2024-03-08T12:18:53;12.60;99.90
22968;DHT22;11650;48.106;-1.696;2024-03-08T12:21:20;12.60;99.90
22968;DHT22;11650;48.106;-1.696;2024-03-08T12:23:47;12.60;99.90
22968;DHT22;11650;48.106;-1.696;2024-03-08T12:26:17;12.50;99.90
22968;DHT22;11650;48.106;-1.696;2024-03-08T12:28:44;12.50;99.90
22968;DHT22;11650;48.106;-1.696;2024-03-08T12:31:16;12.50;99.90
22968;DHT22;11650;48.106;-1.696;2024-03-08T12:33:53;12.60;99.90
22968;DHT22;11650;48.106;-1.696;2024-03-08T12:36:20;12.60;99.90
22968;DHT22;11650;48.106;-1.696;2024-03-08T12:38:47;12.60;99.90
22968;DHT22;11650;48.106;-1.696;2024-03-08T12:41:19;12.80;99.90
22968;DHT22;11650;48.106;-1.696;2024-03-08T12:43:45;12.80;99.90
22968;DHT22;11650;48.106;-1.696;2024-03-08T12:46:18;13.20;99.90
22968;DHT22;11650;48.106;-1.696;2024-03-08T12:48:47;13.30;99.90
22968;DHT22;11650;48.106;-1.696;2024-03-08T12:51:14;13.60;99.90
22968;DHT22;11650;48.106;-1.696;2024-03-08T12:53:41;13.90;99.90
22968;DHT22;11650;48.106;-1.696;2024-03-08T12:56:12;14.10;99.90
22968;DHT22;11650;48.106;-1.696;2024-03-08T12:58:38;14.60;99.90
22968;DHT22;11650;48.106;-1.696;2024-03-08T13:01:04;14.60;99.90
22968;DHT22;11650;48.106;-1.696;2024-03-08T13:03:38;14.70;99.90
22968;DHT22;11650;48.106;-1.696;2024-03-08T13:06:05;15.10;99.90
22968;DHT22;11650;48.106;-1.696;2024-03-08T13:08:35;15.90;99.90
22968;DHT22;11650;48.106;-1.696;2024-03-08T13:11:03;16.10;99.90
22968;DHT22;11650;48.106;-1.696;2024-03-08T13:13:29;17.00;99.90
22968;DHT22;11650;48.106;-1.696;2024-03-08T13:15:54;17.10;99.90
22968;DHT22;11650;48.106;-1.696;2024-03-08T13:18:22;16.70;99.90
22968;DHT22;11650;48.106;-1.696;2024-03-08T13:20:48;17.00;99.90
22968;DHT22;11650;48.106;-1.696;2024-03-08T13:23:17;16.70;99.90
22968;DHT22;11650;48.106;-1.696;2024-03-08T13:25:43;15.90;99.90
22968;DHT22;11650;48.106;-1.696;2024-03-08T13:28:09;15.60;99.90
22968;DHT22;11650;48.106;-1.696;2024-03-08T13:30:36;15.20;99.90
22968;DHT22;11650;48.106;-1.696;2024-03-08T13:33:02;15.30;99.90
22968;DHT22;11650;48.106;-1.696;2024-03-08T13:35:30;16.00;99.90
22968;DHT22;11650;48.106;-1.696;2024-03-08T13:37:56;15.90;99.90
22968;DHT22;11650;48.106;-1.696;2024-03-08T13:40:22;16.20;99.90
22968;DHT22;11650;48.106;-1.696;2024-03-08T13:42:48;16.40;99.90
22968;DHT22;11650;48.106;-1.696;2024-03-08T13:45:15;15.80;99.90
22968;DHT22;11650;48.106;-1.696;2024-03-08T13:47:43;15.40;99.90
22968;DHT22;11650;48.106;-1.696;2024-03-08T13:50:10;15.10;99.90
22968;DHT22;11650;48.106;-1.696;2024-03-08T13:52:43;14.90;99.90
22968;DHT22;11650;48.106;-1.696;2024-03-08T13:55:09;14.60;99.90
22968;DHT22;11650;48.106;-1.696;2024-03-08T13:57:35;14.40;99.90
22968;DHT22;11650;48.106;-1.696;2024-03-08T14:00:01;14.10;99.90
22968;DHT22;11650;48.106;-1.696;2024-03-08T14:02:28;14.00;99.90
22968;DHT22;11650;48.106;-1.696;2024-03-08T14:04:55;14.00;99.90
22968;DHT22;11650;48.106;-1.696;2024-03-08T14:07:21;14.00;99.90
22968;DHT22;11650;48.106;-1.696;2024-03-08T14:09:49;14.00;99.90
22968;DHT22;11650;48.106;-1.696;2024-03-08T14:12:15;14.20;99.90
22968;DHT22;11650;48.106;-1.696;2024-03-08T14:14:43;14.10;99.90
22968;DHT22;11650;48.106;-1.696;2024-03-08T14:17:10;14.00;99.90
22968;DHT22;11650;48.106;-1.696;2024-03-08T14:19:36;14.00;99.90
22968;DHT22;11650;48.106;-1.696;2024-03-08T14:22:02;14.00;99.90
22968;DHT22;11650;48.106;-1.696;2024-03-08T14:24:32;14.00;99.90
22968;DHT22;11650;48.106;-1.696;2024-03-08T14:27:01;14.00;99.90
22968;DHT22;11650;48.106;-1.696;2024-03-08T14:29:28;14.20;99.90
22968;DHT22;11650;48.106;-1.696;2024-03-08T14:31:56;14.40;99.90
22968;DHT22;11650;48.106;-1.696;2024-03-08T14:34:25;14.80;99.90
22968;DHT22;11650;48.106;-1.696;2024-03-08T14:36:53;14.70;99.90
22968;DHT22;11650;48.106;-1.696;2024-03-08T14:39:19;14.50;99.90
22968;DHT22;11650;48.106;-1.696;2024-03-08T14:41:47;14.60;99.90
22968;DHT22;11650;48.106;-1.696;2024-03-08T14:44:14;14.80;99.90
22968;DHT22;11650;48.106;-1.696;2024-03-08T14:46:40;14.60;99.90
22968;DHT22;11650;48.106;-1.696;2024-03-08T14:49:07;14.30;99.90
22968;DHT22;11650;48.106;-1.696;2024-03-08T14:51:33;14.50;99.90
22968;DHT22;11650;48.106;-1.696;2024-03-08T14:53:59;14.50;99.90
22968;DHT22;11650;48.106;-1.696;2024-03-08T14:56:24;14.40;99.90
22968;DHT22;11650;48.106;-1.696;2024-03-08T14:58:52;14.40;99.90
22968;DHT22;11650;48.106;-1.696;2024-03-08T15:01:18;14.30;99.90
22968;DHT22;11650;48.106;-1.696;2024-03-08T15:03:49;14.30;99.90
22968;DHT22;11650;48.106;-1.696;2024-03-08T15:06:15;14.00;99.90
22968;DHT22;11650;48.106;-1.696;2024-03-08T15:08:46;13.80;99.90
22968;DHT22;11650;48.106;-1.696;2024-03-08T15:11:12;13.70;99.90
22968;DHT22;11650;48.106;-1.696;2024-03-08T15:13:49;13.80;99.90
22968;DHT22;11650;48.106;-1.696;2024-03-08T15:16:18;13.70;99.90
22968;DHT22;11650;48.106;-1.696;2024-03-08T15:18:44;13.60;99.90
22968;DHT22;11650;48.106;-1.696;2024-03-08T15:21:14;13.60;99.90
22968;DHT22;11650;48.106;-1.696;2024-03-08T15:23:45;13.40;99.90
22968;DHT22;11650;48.106;-1.696;2024-03-08T15:26:16;13.40;99.90
22968;DHT22;11650;48.106;-1.696;2024-03-08T15:28:42;13.40;99.90
22968;DHT22;11650;48.106;-1.696;2024-03-08T15:31:10;13.20;99.90
22968;DHT22;11650;48.106;-1.696;2024-03-08T15:33:38;13.20;99.90
22968;DHT22;11650;48.106;-1.696;2024-03-08T15:36:16;13.20;99.90
22968;DHT22;11650;48.106;-1.696;2024-03-08T15:38:43;13.00;99.90